Gila Bend, AZ

8:59 PM MST on July 30, 2014 (GMT -0700)
Gila Bend AF Aux AP, Gila Ben (KGXF) Elev 883 ft | 32.89 °N, 112.72 °W | Change Station
Active Advisory: Excessive Heat Warning Active Notice: Record Report

Current weather conditions updated 1 hour ago

Scattered Clouds
Scattered Clouds
104 °F
Feels Like 104 °F
N
5
Wind Variable Wind from SSW

Tomorrow is forecast to be nearly the same temperature as today.

Today
High -- | Low -- °F
--% Chance of Precip.
Yesterday
High -- | Low -- °F
Precip. -- in
5:42 AM 7:31 PM
Waxing Crescent, 15% visible
Pressure 29.72 in
Visibility 10.0 miles
Clouds Few 9000 ft
Scattered Clouds 25000 ft
Dew Point 45 °F
Humidity 13%
Rainfall 0.00 in
Snow Depth Not available.
UV 0 out of 12
Pollen 4.20 out of 12
Air Quality Not available.
Flu Activity Not available.
METAR KGXF 310255Z 21004KT 10SM FEW090 SCT250 40/07 A2979 RMK SLP064 53005

More Conditions Fewer Conditions

Pressure 29.72 in
Visibility 10.0 miles
Clouds Few 9000 ft
Scattered Clouds 25000 ft
Dew Point 45 °F
Humidity 13%
Rainfall 0.00 in
Snow Depth Not available.
UV 0 out of 12
Pollen 4.20 out of 12
Air Quality Not available.
Flu Activity Not available.
METAR KGXF 310255Z 21004KT 10SM FEW090 SCT250 40/07 A2979 RMK SLP064 53005

More Conditions Fewer Conditions

10-Day Weather Forecast

Almanac

Astronomy

Jul. 30, 2014 Rise Set
Actual Time 5:42 AM MST 7:31 PM MST
Civil Twilight 5:15 AM MST 7:58 PM MST
Nautical Twilight 4:42 AM MST 8:30 PM MST
Astronomical Twilight 4:08 AM MST 9:05 PM MST
Moon 9:04 AM MST (7/30) 9:30 PM MST (7/30)
Length of Visible Light 14h 42m
Length of Day
13h 48m
Tomorrow will be 1m 29s shorter.
Waxing Crescent, 15% of the Moon is Illuminated
Today
Waxing Crescent
Aug 3
First Quarter
Aug 10
Full
Aug 17
Last Quarter
Aug 25
New

Today's Extremes

State Highs State Lows

Community

WunderPhotos

Upload Photos

1,739,279 photos uploaded!

Nearby

Snow Depth

Station Depth Elevation
Workman Creek 0 in 6900 ft
White Horse Lake 0 in 7180 ft
Snowslide Canyon 0 in 9730 ft
Beaver Head 8 in 7990 ft

Earthquake Activity

City Distance Mag. Time & Date
No recent earthquake activity has been reported nearby.
Minimum magnitude displayed is 2.5.

Coastal Water Temperatures

Place Temperature
No Stations Reporting

Nearby Weather Stations

Station Location Temp. Heat Index Dew Point Humidity Wind Precip. Elev Updated Type
MesoWest SMUR , Gila Bend, AZ 113 °F 102 °F - - WSW  at  4 mph 0.00 in / hr 728 ft 7:30 PM MST MADIS
SR 85 Landfill, Buckeye, AZ 101.1 °F 99 °F 53 °F 20% South  at  1.0 mph 0.00 in / hr 850 ft 8:58 PM MST Rapid Fire
MesoWest MOBIL1 , Maricopa, AZ 109 °F 100 °F - - North  at  0 mph 0.00 in / hr 1381 ft 6:05 PM MST MADIS
MesoWest PIEDRA , Dateland, AZ 108 °F 99 °F - - SW  at  5 mph 0.00 in / hr 756 ft 8:00 PM MST MADIS

Show More Stations Show Fewer Stations